Time;durP1;ratioP1;P1;durP2;ratioP2;P2;SDS_P1;SDS_P2;PMS_P1;PMS_P2;Temp;Humidity;BMP_temperature;BMP_pressure;BME280_temperature;BME280_humidity;BME280_pressure;Samples;Min_cycle;Max_cycle;Signal;HPM_P1;HPM_P2
2022/08/27 00:00:50;;;;;;;19.80;13.02;;;17.90;99.90;;;;;;5052532;28;20219;-73
2022/08/27 00:03:19;;;;;;;22.27;14.20;;;17.90;99.90;;;;;;5050939;28;20220;-74
2022/08/27 00:05:48;;;;;;;21.67;14.52;;;17.90;99.90;;;;;;5057765;28;20199;-74
2022/08/27 00:08:17;;;;;;;22.55;14.27;;;17.90;99.90;;;;;;5072982;28;20635;-74
2022/08/27 00:10:45;;;;;;;19.75;13.43;;;17.90;99.90;;;;;;5053742;28;20212;-71
2022/08/27 00:13:16;;;;;;;19.33;13.00;;;17.90;99.90;;;;;;5050484;28;20199;-73
2022/08/27 00:15:44;;;;;;;18.80;13.73;;;17.90;99.90;;;;;;5052434;28;20186;-75
2022/08/27 00:18:13;;;;;;;20.88;13.15;;;17.80;99.90;;;;;;5052337;28;20203;-77
2022/08/27 00:20:43;;;;;;;21.85;14.02;;;17.80;99.90;;;;;;5050868;28;20215;-76
2022/08/27 00:23:12;;;;;;;20.02;12.50;;;17.90;99.90;;;;;;5055645;28;20224;-74
2022/08/27 00:25:40;;;;;;;18.45;12.75;;;17.90;99.90;;;;;;5054145;28;20207;-74
2022/08/27 00:28:09;;;;;;;19.77;13.15;;;17.90;99.90;;;;;;5055159;28;20211;-74
2022/08/27 00:30:40;;;;;;;28.50;15.45;;;17.80;99.90;;;;;;5055208;28;21128;-73
2022/08/27 00:33:09;;;;;;;21.17;13.48;;;17.80;99.90;;;;;;5055687;28;20199;-73
2022/08/27 00:35:38;;;;;;;23.15;14.35;;;17.80;99.90;;;;;;5055602;28;20196;-74
2022/08/27 00:38:08;;;;;;;22.92;14.63;;;17.80;99.90;;;;;;5055272;28;20191;-74
2022/08/27 00:40:38;;;;;;;21.83;13.13;;;17.80;99.90;;;;;;5054787;28;20250;-71
2022/08/27 00:43:07;;;;;;;16.90;12.25;;;17.80;99.90;;;;;;5055452;28;20227;-72
2022/08/27 00:45:39;;;;;;;17.90;12.68;;;17.80;99.90;;;;;;5055619;28;20559;-70
2022/08/27 00:48:12;;;;;;;14.20;11.50;;;17.80;99.90;;;;;;5055345;28;20194;-70
2022/08/27 00:50:46;;;;;;;17.20;12.25;;;17.80;99.90;;;;;;5054664;28;20219;-71
2022/08/27 00:53:18;;;;;;;19.95;12.63;;;17.80;99.90;;;;;;5054612;28;20203;-71
2022/08/27 00:55:50;;;;;;;19.98;12.55;;;17.80;99.90;;;;;;5054588;28;20203;-71
2022/08/27 00:58:25;;;;;;;17.48;12.48;;;17.80;99.90;;;;;;5055186;28;20189;-71
2022/08/27 01:00:54;;;;;;;19.30;12.50;;;17.80;99.90;;;;;;5055075;28;20215;-71
2022/08/27 01:03:25;;;;;;;16.38;12.30;;;17.70;99.90;;;;;;5054996;28;20242;-70
2022/08/27 01:05:56;;;;;;;15.00;11.48;;;17.80;99.90;;;;;;5055620;28;20215;-70
2022/08/27 01:08:27;;;;;;;18.67;12.77;;;17.80;99.90;;;;;;5056234;28;20206;-72
2022/08/27 01:10:58;;;;;;;16.83;11.57;;;17.80;99.90;;;;;;5054858;28;20235;-70
2022/08/27 01:13:31;;;;;;;18.77;12.02;;;17.80;99.90;;;;;;5054845;28;20567;-70
2022/08/27 01:16:23;;;;;;;15.73;11.25;;;17.80;99.90;;;;;;5054940;28;20187;-70
2022/08/27 01:18:54;;;;;;;16.45;11.75;;;17.80;99.90;;;;;;5054193;28;20192;-70
2022/08/27 01:21:31;;;;;;;13.35;10.38;;;17.80;99.90;;;;;;5054189;28;20215;-69
2022/08/27 01:24:08;;;;;;;15.07;10.63;;;17.70;99.90;;;;;;5053950;28;20294;-73
2022/08/27 01:26:38;;;;;;;11.25;9.13;;;17.80;99.90;;;;;;5056847;28;20199;-71
2022/08/27 01:29:07;;;;;;;13.50;9.48;;;17.70;99.90;;;;;;5054380;28;20218;-70
2022/08/27 01:31:36;;;;;;;13.35;8.60;;;17.70;99.90;;;;;;5056324;28;20231;-70
2022/08/27 01:34:06;;;;;;;13.13;9.55;;;17.70;99.90;;;;;;5073212;28;20203;-72
2022/08/27 01:36:35;;;;;;;16.35;11.07;;;17.70;99.90;;;;;;5074020;28;20658;-72
2022/08/27 01:39:04;;;;;;;17.83;12.30;;;17.70;99.90;;;;;;5055676;28;20211;-72
2022/08/27 01:41:33;;;;;;;17.35;11.80;;;17.60;99.90;;;;;;5053986;28;20224;-72
2022/08/27 01:44:04;;;;;;;15.68;10.68;;;17.50;99.90;;;;;;5053480;28;20228;-72
2022/08/27 01:46:32;;;;;;;15.48;11.50;;;17.50;99.90;;;;;;5052299;28;20207;-73
2022/08/27 01:49:01;;;;;;;17.00;12.02;;;17.50;99.90;;;;;;5053520;28;20650;-73
2022/08/27 01:51:30;;;;;;;18.77;12.90;;;17.50;99.90;;;;;;5053394;28;20223;-73
2022/08/27 01:53:59;;;;;;;16.58;11.63;;;17.60;99.90;;;;;;5054354;28;20206;-73
2022/08/27 01:56:27;;;;;;;16.17;11.15;;;17.60;99.90;;;;;;5053093;28;20211;-73
2022/08/27 01:58:56;;;;;;;13.95;11.02;;;17.60;99.90;;;;;;5053331;28;20218;-73
2022/08/27 02:01:26;;;;;;;12.20;9.90;;;17.60;99.90;;;;;;5052900;28;20231;-73
2022/08/27 02:03:55;;;;;;;15.18;9.63;;;17.60;99.90;;;;;;5053163;28;20227;-73
2022/08/27 02:06:24;;;;;;;14.18;10.23;;;17.50;99.90;;;;;;5052991;28;20204;-73
2022/08/27 02:08:53;;;;;;;14.88;10.45;;;17.50;99.90;;;;;;5052055;28;20204;-73
2022/08/27 02:11:22;;;;;;;12.00;9.60;;;17.50;99.90;;;;;;5052680;28;20601;-73
2022/08/27 02:13:51;;;;;;;17.63;10.32;;;17.50;99.90;;;;;;5052752;28;20223;-72
2022/08/27 02:16:20;;;;;;;14.85;10.85;;;17.50;99.90;;;;;;5052957;28;20555;-73
2022/08/27 02:18:53;;;;;;;17.60;10.95;;;17.50;99.90;;;;;;5052395;28;20208;-74
2022/08/27 02:21:23;;;;;;;16.38;11.00;;;17.50;99.90;;;;;;5052336;28;20228;-73
2022/08/27 02:23:53;;;;;;;15.73;11.20;;;17.50;99.90;;;;;;5052774;28;20669;-70
2022/08/27 02:26:23;;;;;;;12.77;9.98;;;17.50;99.90;;;;;;5052834;28;20203;-71
2022/08/27 02:28:51;;;;;;;13.15;9.45;;;17.50;99.90;;;;;;5052655;28;20207;-70
2022/08/27 02:31:21;;;;;;;14.77;12.18;;;17.50;99.90;;;;;;5051947;28;20246;-70
2022/08/27 02:33:52;;;;;;;15.63;10.57;;;17.50;99.90;;;;;;5052532;28;20208;-70
2022/08/27 02:36:20;;;;;;;15.50;11.38;;;17.50;99.90;;;;;;5052623;28;20207;-71
2022/08/27 02:38:49;;;;;;;13.35;9.65;;;17.50;99.90;;;;;;5055708;28;20216;-72
2022/08/27 02:41:18;;;;;;;14.20;10.65;;;17.50;99.90;;;;;;5052796;28;20219;-71
2022/08/27 02:43:47;;;;;;;15.57;9.93;;;17.50;99.90;;;;;;5052295;28;20204;-72
2022/08/27 02:46:17;;;;;;;12.18;9.93;;;17.50;99.90;;;;;;5052369;28;20232;-71
2022/08/27 02:48:46;;;;;;;13.23;9.60;;;17.40;99.90;;;;;;5052479;28;20196;-71
2022/08/27 02:51:16;;;;;;;14.57;10.80;;;17.40;99.90;;;;;;5052110;28;20733;-72
2022/08/27 02:53:47;;;;;;;16.45;10.70;;;17.50;99.90;;;;;;5052011;28;20212;-72
2022/08/27 02:56:16;;;;;;;17.33;11.80;;;17.50;99.90;;;;;;5052120;28;20214;-72
2022/08/27 02:58:49;;;;;;;15.68;11.00;;;17.50;99.90;;;;;;5052713;28;20208;-73
2022/08/27 03:01:18;;;;;;;14.75;10.43;;;17.50;99.90;;;;;;5051296;28;20269;-72
2022/08/27 03:03:47;;;;;;;15.93;10.60;;;17.40;99.90;;;;;;5052159;28;20231;-74
2022/08/27 03:06:17;;;;;;;14.60;11.00;;;17.50;99.90;;;;;;5051848;28;20310;-72
2022/08/27 03:08:46;;;;;;;17.60;11.27;;;17.50;99.90;;;;;;5051434;28;20213;-73
2022/08/27 03:11:22;;;;;;;17.63;10.40;;;17.40;99.90;;;;;;5052034;28;20234;-73
2022/08/27 03:13:52;;;;;;;17.85;10.65;;;17.50;99.90;;;;;;5050566;28;20223;-72
2022/08/27 03:16:21;;;;;;;15.55;11.45;;;17.50;99.90;;;;;;5052301;28;20203;-74
2022/08/27 03:18:49;;;;;;;16.92;11.68;;;17.50;99.90;;;;;;5052049;28;20578;-71
2022/08/27 03:21:23;;;;;;;17.75;11.20;;;17.50;99.90;;;;;;5051506;28;20224;-72
2022/08/27 03:23:51;;;;;;;13.18;10.43;;;17.50;99.90;;;;;;5051690;28;20207;-71
2022/08/27 03:26:20;;;;;;;14.15;10.93;;;17.50;99.90;;;;;;5051921;28;20234;-72
2022/08/27 03:28:49;;;;;;;12.50;9.45;;;17.50;99.90;;;;;;5051988;28;20199;-70
2022/08/27 03:31:25;;;;;;;16.77;10.63;;;17.50;99.90;;;;;;5051874;28;20586;-70
2022/08/27 03:33:57;;;;;;;14.63;10.68;;;17.50;99.90;;;;;;5051535;28;20199;-71
2022/08/27 03:36:29;;;;;;;13.52;10.55;;;17.40;99.90;;;;;;5051105;28;20214;-71
2022/08/27 03:38:58;;;;;;;13.98;10.93;;;17.40;99.90;;;;;;5051937;28;20635;-71
2022/08/27 03:41:27;;;;;;;14.45;11.35;;;17.40;99.90;;;;;;5051776;28;20223;-72
2022/08/27 03:44:16;;;;;;;15.52;11.23;;;17.40;99.90;;;;;;5051906;28;20643;-71
2022/08/27 03:46:50;;;;;;;15.68;11.00;;;17.40;99.90;;;;;;5051289;28;20235;-71
2022/08/27 03:49:19;;;;;;;16.27;11.95;;;17.40;99.90;;;;;;5051851;28;20569;-73
2022/08/27 03:51:51;;;;;;;15.25;11.63;;;17.40;99.90;;;;;;5051270;28;20238;-73
2022/08/27 03:54:20;;;;;;;17.42;12.07;;;17.50;99.90;;;;;;5051073;28;20188;-73
2022/08/27 03:56:48;;;;;;;18.88;12.65;;;17.40;99.90;;;;;;5052554;28;20207;-71
2022/08/27 03:59:17;;;;;;;16.58;12.00;;;17.40;99.90;;;;;;5055654;28;20722;-72
2022/08/27 04:01:46;;;;;;;18.55;11.82;;;17.40;99.90;;;;;;5055531;28;20582;-72
2022/08/27 04:04:15;;;;;;;18.40;12.15;;;17.40;99.90;;;;;;5055661;28;20200;-71
2022/08/27 04:06:44;;;;;;;17.33;12.05;;;17.40;99.90;;;;;;5054854;28;20216;-71
2022/08/27 04:09:14;;;;;;;16.90;12.10;;;17.40;99.90;;;;;;5054797;28;20199;-71
2022/08/27 04:11:44;;;;;;;17.02;12.07;;;17.40;99.90;;;;;;5055382;28;20215;-71
2022/08/27 04:14:13;;;;;;;16.08;11.80;;;17.40;99.90;;;;;;5055306;28;20215;-73
2022/08/27 04:16:55;;;;;;;17.60;11.75;;;17.40;99.90;;;;;;5055504;28;20188;-72
2022/08/27 04:19:26;;;;;;;17.38;12.85;;;17.40;99.90;;;;;;5055855;28;20692;-71
2022/08/27 04:22:01;;;;;;;17.05;12.07;;;17.40;99.90;;;;;;5054525;28;20235;-72
2022/08/27 04:24:33;;;;;;;17.17;12.40;;;17.40;99.90;;;;;;5055321;28;20184;-72
2022/08/27 04:27:03;;;;;;;15.18;12.52;;;17.40;99.90;;;;;;5055156;28;20216;-72
2022/08/27 04:29:32;;;;;;;17.58;12.07;;;17.40;99.90;;;;;;5053399;28;20199;-74
2022/08/27 04:32:01;;;;;;;17.50;12.05;;;17.40;99.90;;;;;;5054938;28;20223;-74
2022/08/27 04:34:30;;;;;;;17.10;12.25;;;17.40;99.90;;;;;;5055061;28;20200;-74
2022/08/27 04:36:59;;;;;;;20.92;13.05;;;17.40;99.90;;;;;;5074065;28;20206;-76
2022/08/27 04:39:29;;;;;;;16.42;12.25;;;17.50;99.90;;;;;;5074178;28;20650;-73
2022/08/27 04:42:00;;;;;;;15.48;12.68;;;17.40;99.90;;;;;;5065135;28;20223;-71
2022/08/27 04:44:31;;;;;;;16.90;11.57;;;17.40;99.90;;;;;;5074376;28;20211;-73
2022/08/27 04:47:02;;;;;;;19.02;12.90;;;17.40;99.90;;;;;;5074831;28;20210;-73
2022/08/27 04:49:31;;;;;;;21.83;14.13;;;17.40;99.90;;;;;;5058747;28;20203;-72
2022/08/27 04:52:01;;;;;;;19.90;13.02;;;17.40;99.90;;;;;;5055283;28;20592;-73
2022/08/27 04:54:31;;;;;;;21.25;13.85;;;17.40;99.90;;;;;;5054191;28;20192;-73
2022/08/27 04:57:03;;;;;;;17.55;13.05;;;17.40;99.90;;;;;;5054723;28;20196;-72
2022/08/27 04:59:33;;;;;;;17.88;14.25;;;17.40;99.90;;;;;;5054701;28;20188;-73
2022/08/27 05:02:03;;;;;;;21.48;15.32;;;17.40;99.90;;;;;;5054485;28;20207;-75
2022/08/27 05:04:35;;;;;;;19.33;14.02;;;17.40;99.90;;;;;;5053470;28;20681;-74
2022/08/27 05:07:04;;;;;;;19.08;13.75;;;17.40;99.90;;;;;;5054164;28;20207;-75
2022/08/27 05:09:33;;;;;;;18.67;13.60;;;17.40;99.90;;;;;;5054469;28;20192;-73
2022/08/27 05:12:03;;;;;;;19.50;14.13;;;17.50;99.90;;;;;;5054296;28;20227;-75
2022/08/27 05:14:32;;;;;;;18.40;13.55;;;17.50;99.90;;;;;;5054320;28;20211;-74
2022/08/27 05:17:02;;;;;;;19.80;14.20;;;17.40;99.90;;;;;;5052844;28;20218;-74
2022/08/27 05:19:31;;;;;;;17.55;14.57;;;17.40;99.90;;;;;;5053646;28;20214;-74
2022/08/27 05:22:00;;;;;;;16.35;13.60;;;17.50;99.90;;;;;;5053428;28;20230;-73
2022/08/27 05:24:31;;;;;;;18.85;14.20;;;17.50;99.90;;;;;;5054146;28;20658;-73
2022/08/27 05:26:59;;;;;;;19.77;14.00;;;17.50;99.90;;;;;;5053477;28;20583;-73
2022/08/27 05:29:30;;;;;;;20.25;13.88;;;17.50;99.90;;;;;;5052104;28;20203;-75
2022/08/27 05:31:59;;;;;;;20.67;14.63;;;17.50;99.90;;;;;;5054054;28;20725;-77
2022/08/27 05:34:28;;;;;;;20.02;15.23;;;17.50;99.90;;;;;;5055174;28;20200;-74
2022/08/27 05:36:58;;;;;;;24.83;16.48;;;17.60;99.90;;;;;;5071367;28;20673;-74
2022/08/27 05:39:26;;;;;;;20.73;15.60;;;17.60;99.90;;;;;;5055138;28;20211;-74
2022/08/27 05:41:56;;;;;;;22.77;15.77;;;17.60;99.90;;;;;;5053490;28;20219;-76
2022/08/27 05:44:25;;;;;;;22.92;16.35;;;17.60;99.90;;;;;;5053211;28;20202;-73
2022/08/27 05:47:11;;;;;;;24.17;17.13;;;17.60;99.90;;;;;;5053854;28;20224;-75
2022/08/27 05:49:40;;;;;;;25.70;16.58;;;17.60;99.90;;;;;;5053131;28;20207;-73
2022/08/27 05:52:10;;;;;;;21.25;15.27;;;17.60;99.90;;;;;;5052956;28;20224;-73
2022/08/27 05:54:40;;;;;;;25.52;15.27;;;17.70;99.90;;;;;;5051745;28;20199;-74
2022/08/27 05:57:09;;;;;;;23.70;16.50;;;17.70;99.90;;;;;;5053658;28;20725;-73
2022/08/27 06:02:25;;;;;;;25.05;17.50;;;17.80;99.90;;;;;;5052730;28;20216;-73
2022/08/27 06:04:54;;;;;;;28.05;17.30;;;17.80;99.90;;;;;;5052768;28;20192;-74
2022/08/27 06:07:23;;;;;;;26.23;17.70;;;17.80;99.90;;;;;;5053393;28;20227;-74
2022/08/27 06:09:52;;;;;;;27.83;19.77;;;17.90;99.90;;;;;;5053428;28;20192;-75
2022/08/27 06:12:21;;;;;;;26.50;17.48;;;17.90;99.90;;;;;;5053291;28;20709;-74
2022/08/27 06:14:56;;;;;;;27.05;18.33;;;17.90;99.90;;;;;;5053033;28;20210;-74
2022/08/27 06:17:26;;;;;;;28.35;17.90;;;17.90;99.90;;;;;;5052537;28;20658;-73
2022/08/27 06:19:55;;;;;;;27.00;18.17;;;17.90;99.90;;;;;;5051120;28;20208;-74
2022/08/27 06:22:24;;;;;;;26.92;18.13;;;17.90;99.90;;;;;;5052336;28;20216;-74
2022/08/27 06:24:53;;;;;;;27.88;19.17;;;18.00;99.90;;;;;;5053204;28;20199;-75
2022/08/27 06:27:22;;;;;;;33.80;20.50;;;18.10;99.90;;;;;;5052725;28;20220;-73
2022/08/27 06:29:51;;;;;;;29.15;20.20;;;18.10;99.90;;;;;;5052181;28;20199;-74
2022/08/27 06:32:20;;;;;;;28.85;19.02;;;18.10;99.90;;;;;;5052931;28;20286;-75
2022/08/27 06:34:50;;;;;;;29.63;20.60;;;18.10;99.90;;;;;;5054312;28;20211;-75
2022/08/27 06:37:19;;;;;;;31.58;20.70;;;18.10;99.90;;;;;;5052531;28;20206;-76
2022/08/27 06:39:48;;;;;;;29.20;20.40;;;18.20;99.90;;;;;;5052757;28;20199;-77
2022/08/27 06:42:17;;;;;;;32.63;21.40;;;18.20;99.90;;;;;;5051383;28;20220;-74
2022/08/27 06:44:50;;;;;;;29.05;20.98;;;18.20;99.90;;;;;;5051493;28;20196;-75
2022/08/27 06:47:19;;;;;;;31.08;22.00;;;18.30;99.90;;;;;;5052543;28;20227;-76
2022/08/27 06:49:50;;;;;;;29.50;20.73;;;18.40;99.90;;;;;;5050567;28;20200;-76
2022/08/27 06:52:19;;;;;;;29.92;22.02;;;18.40;99.90;;;;;;5051670;28;20232;-77
2022/08/27 06:54:49;;;;;;;29.58;20.05;;;18.40;99.90;;;;;;5067991;28;20206;-76
2022/08/27 06:57:18;;;;;;;31.77;22.13;;;18.40;99.90;;;;;;5054152;28;20208;-75
2022/08/27 06:59:47;;;;;;;29.83;21.95;;;18.40;99.90;;;;;;5052489;28;20202;-75
2022/08/27 07:02:16;;;;;;;36.05;22.55;;;18.40;99.90;;;;;;5052375;28;20216;-76
2022/08/27 07:04:45;;;;;;;32.28;21.63;;;18.40;99.90;;;;;;5051802;28;20203;-75
2022/08/27 07:07:15;;;;;;;34.33;23.52;;;18.40;99.90;;;;;;5071628;28;20210;-76
2022/08/27 07:10:04;;;;;;;35.03;23.85;;;18.40;99.90;;;;;;5071227;28;20183;-76
2022/08/27 07:12:33;;;;;;;31.77;22.63;;;18.40;99.90;;;;;;5072260;28;20198;-76
2022/08/27 07:15:02;;;;;;;37.03;24.30;;;18.40;99.90;;;;;;5072198;28;20661;-74
2022/08/27 07:17:32;;;;;;;28.67;21.77;;;18.50;99.90;;;;;;5059180;28;20207;-76
2022/08/27 07:20:01;;;;;;;34.08;23.70;;;18.50;99.90;;;;;;5055711;28;20195;-77
2022/08/27 07:22:31;;;;;;;32.00;23.33;;;18.50;99.90;;;;;;5072209;28;20206;-76
2022/08/27 07:25:00;;;;;;;34.25;24.80;;;18.50;99.90;;;;;;5072380;28;20195;-77
2022/08/27 07:27:29;;;;;;;32.80;24.02;;;18.50;99.90;;;;;;5071193;28;20191;-77
2022/08/27 07:29:59;;;;;;;34.90;23.42;;;18.50;99.90;;;;;;5059578;28;20212;-76
2022/08/27 07:32:29;;;;;;;34.28;25.02;;;18.50;99.90;;;;;;5056930;28;20207;-77
2022/08/27 07:34:59;;;;;;;35.72;25.45;;;18.50;99.90;;;;;;5055871;28;20587;-77
2022/08/27 07:37:28;;;;;;;31.38;24.00;;;18.50;99.90;;;;;;5060791;28;20199;-76
2022/08/27 07:40:06;;;;;;;34.72;25.40;;;18.50;99.90;;;;;;5056641;28;20187;-78
2022/08/27 07:45:22;;;;;;;36.83;25.23;;;18.60;99.90;;;;;;5056002;28;20203;-76
2022/08/27 07:47:51;;;;;;;33.15;25.08;;;18.60;99.90;;;;;;5055976;28;20570;-75
2022/08/27 07:50:22;;;;;;;37.05;26.38;;;18.60;99.90;;;;;;5053398;28;20210;-75
2022/08/27 07:52:51;;;;;;;37.75;25.35;;;18.70;99.90;;;;;;5059994;28;20211;-75
2022/08/27 07:55:21;;;;;;;38.95;27.20;;;18.70;99.90;;;;;;5055419;28;20206;-76
2022/08/27 07:57:51;;;;;;;37.65;25.90;;;18.70;99.90;;;;;;5055138;28;20200;-74
2022/08/27 08:00:20;;;;;;;38.58;27.33;;;18.70;99.90;;;;;;5056156;28;20704;-75
2022/08/27 08:02:49;;;;;;;39.00;26.80;;;18.70;99.90;;;;;;5055764;28;20566;-77
2022/08/27 08:05:18;;;;;;;39.88;26.63;;;18.80;99.90;;;;;;5054428;28;20196;-76
2022/08/27 08:07:46;;;;;;;40.72;26.92;;;18.80;99.90;;;;;;5054328;28;20196;-75
2022/08/27 08:10:15;;;;;;;35.88;25.20;;;18.90;99.90;;;;;;5054968;28;20203;-75
2022/08/27 08:12:45;;;;;;;41.03;27.38;;;18.90;99.90;;;;;;5055481;28;20187;-76
2022/08/27 08:15:14;;;;;;;37.53;26.35;;;19.00;99.90;;;;;;5053632;28;20574;-74
2022/08/27 08:17:43;;;;;;;36.67;26.45;;;19.00;99.90;;;;;;5054500;28;20195;-75
2022/08/27 08:20:14;;;;;;;43.00;27.25;;;19.00;99.90;;;;;;5054289;28;20674;-76
2022/08/27 08:22:58;;;;;;;37.50;26.58;;;19.10;99.90;;;;;;5054720;28;20277;-77
2022/08/27 08:25:27;;;;;;;39.33;26.20;;;19.10;99.90;;;;;;5055402;28;20192;-75
2022/08/27 08:28:03;;;;;;;35.55;26.50;;;19.10;99.90;;;;;;5055103;28;20677;-75
2022/08/27 08:30:32;;;;;;;38.25;27.55;;;19.10;99.90;;;;;;5055152;28;20215;-74
2022/08/27 08:33:03;;;;;;;35.80;26.92;;;19.10;99.90;;;;;;5054099;28;20211;-75
2022/08/27 08:35:31;;;;;;;35.25;25.10;;;19.10;99.90;;;;;;5053811;28;20211;-75
2022/08/27 08:38:08;;;;;;;35.22;25.48;;;19.20;99.90;;;;;;5055460;28;20211;-75
2022/08/27 08:40:40;;;;;;;33.75;24.27;;;19.20;99.90;;;;;;5052908;28;20219;-75
2022/08/27 08:43:26;;;;;;;35.70;25.40;;;19.30;99.90;;;;;;5055457;28;20188;-75
2022/08/27 08:45:56;;;;;;;31.23;24.48;;;19.40;99.90;;;;;;5055169;28;20208;-75
2022/08/27 08:48:28;;;;;;;33.63;25.60;;;19.30;99.90;;;;;;5054834;28;20191;-76
2022/08/27 08:51:03;;;;;;;32.50;24.67;;;19.30;99.90;;;;;;5053474;28;20619;-75
2022/08/27 08:53:40;;;;;;;36.55;24.20;;;19.30;99.90;;;;;;5054797;28;20188;-75
2022/08/27 08:56:12;;;;;;;36.05;25.63;;;19.40;99.90;;;;;;5054070;28;20551;-75
2022/08/27 08:58:47;;;;;;;28.13;21.48;;;19.40;99.90;;;;;;5054793;28;20195;-76
2022/08/27 09:01:19;;;;;;;27.52;20.92;;;19.40;99.90;;;;;;5054684;28;20215;-74
2022/08/27 09:03:52;;;;;;;29.83;22.83;;;19.50;99.90;;;;;;5054098;28;20199;-74
2022/08/27 09:06:31;;;;;;;28.10;22.50;;;19.50;99.90;;;;;;5053204;28;20200;-75
2022/08/27 09:09:19;;;;;;;31.02;22.85;;;19.60;99.90;;;;;;5053389;28;20215;-75
2022/08/27 09:11:58;;;;;;;30.92;22.85;;;19.60;99.90;;;;;;5053911;28;20215;-76
2022/08/27 09:14:35;;;;;;;29.98;23.25;;;19.60;99.90;;;;;;5053255;28;20216;-75
2022/08/27 09:17:06;;;;;;;31.98;23.60;;;19.70;99.90;;;;;;5054403;28;20180;-76
2022/08/27 09:19:39;;;;;;;31.85;22.40;;;19.70;99.90;;;;;;5053184;28;20199;-75
2022/08/27 09:22:18;;;;;;;27.05;21.10;;;19.70;99.90;;;;;;5059052;28;20690;-75
2022/08/27 09:24:55;;;;;;;31.60;23.30;;;19.80;99.90;;;;;;5054301;28;20199;-76
2022/08/27 09:27:25;;;;;;;31.88;23.75;;;19.70;99.90;;;;;;5054464;28;20670;-76
2022/08/27 09:29:56;;;;;;;31.77;21.67;;;19.60;99.90;;;;;;5051582;28;20216;-77
2022/08/27 09:32:27;;;;;;;28.80;21.30;;;19.70;99.90;;;;;;5036340;28;20228;-76
2022/08/27 09:34:58;;;;;;;26.75;20.60;;;19.70;99.90;;;;;;5054216;28;20560;-75
2022/08/27 09:37:30;;;;;;;25.38;20.25;;;19.70;99.90;;;;;;5057375;28;20204;-74
2022/08/27 09:40:07;;;;;;;23.13;19.70;;;19.70;99.90;;;;;;5053854;28;20184;-75
2022/08/27 09:42:43;;;;;;;25.50;19.20;;;19.70;99.90;;;;;;5053880;28;20183;-74
2022/08/27 09:45:20;;;;;;;27.25;22.33;;;19.80;99.90;;;;;;5053458;28;20191;-75
2022/08/27 09:47:51;;;;;;;28.30;21.10;;;19.80;99.90;;;;;;5053775;28;20195;-75
2022/08/27 09:50:23;;;;;;;26.13;22.02;;;19.80;99.90;;;;;;5052805;28;20242;-77
2022/08/27 09:52:54;;;;;;;27.35;21.70;;;19.90;99.90;;;;;;5051637;28;20196;-74
2022/08/27 09:55:43;;;;;;;26.80;21.77;;;19.90;99.90;;;;;;5050936;28;20195;-75
2022/08/27 09:58:19;;;;;;;24.30;20.40;;;20.10;99.90;;;;;;5053596;28;20184;-75
2022/08/27 10:00:58;;;;;;;29.77;20.67;;;20.30;99.90;;;;;;5053477;28;20211;-75
2022/08/27 10:03:27;;;;;;;24.33;21.17;;;20.50;99.90;;;;;;5052370;28;20203;-75
2022/08/27 10:06:01;;;;;;;25.77;21.02;;;20.50;99.90;;;;;;5052798;28;20191;-75
2022/08/27 10:08:38;;;;;;;27.23;20.40;;;20.80;99.90;;;;;;5052643;28;20202;-74
2022/08/27 10:11:13;;;;;;;23.65;19.35;;;20.90;99.90;;;;;;5052179;28;20582;-76
2022/08/27 10:13:51;;;;;;;24.15;18.55;;;21.00;99.90;;;;;;5053190;28;20207;-75
2022/08/27 10:16:56;;;;;;;18.98;15.73;;;21.20;99.90;;;;;;5053272;28;20658;-76
2022/08/27 10:19:42;;;;;;;18.67;15.07;;;21.40;99.90;;;;;;5041496;28;20696;-74
2022/08/27 10:22:19;;;;;;;20.42;16.38;;;21.50;99.90;;;;;;5052454;28;20216;-75
2022/08/27 10:25:02;;;;;;;20.27;15.15;;;21.50;99.90;;;;;;5051271;28;20674;-75
2022/08/27 10:27:39;;;;;;;15.57;12.75;;;21.60;99.90;;;;;;5053041;28;20195;-75
2022/08/27 10:30:10;;;;;;;14.20;12.75;;;21.60;99.90;;;;;;5054678;28;20226;-74
2022/08/27 10:32:54;;;;;;;12.82;11.07;;;21.50;99.90;;;;;;5051761;28;20192;-74
2022/08/27 10:35:26;;;;;;;12.20;10.85;;;21.50;99.90;;;;;;5052874;28;20180;-74
2022/08/27 10:38:09;;;;;;;13.13;11.57;;;21.50;99.90;;;;;;5052248;28;20191;-76
2022/08/27 10:40:45;;;;;;;15.85;11.50;;;21.50;99.90;;;;;;5052601;28;20230;-76
2022/08/27 10:43:33;;;;;;;14.80;11.13;;;21.50;99.90;;;;;;5052721;28;20184;-76
2022/08/27 10:46:13;;;;;;;11.88;9.20;;;21.40;99.90;;;;;;5051431;28;20192;-75
2022/08/27 10:48:51;;;;;;;10.93;9.45;;;21.40;99.90;;;;;;5052076;28;20537;-76
2022/08/27 10:51:24;;;;;;;9.68;8.68;;;21.40;99.90;;;;;;5051903;28;20612;-76
2022/08/27 10:54:00;;;;;;;10.07;9.07;;;21.40;99.90;;;;;;5052629;28;20187;-74
2022/08/27 10:56:32;;;;;;;11.15;9.50;;;21.40;99.90;;;;;;5052009;28;20207;-75
2022/08/27 10:59:13;;;;;;;10.73;8.52;;;21.50;99.90;;;;;;5052606;28;20187;-74
2022/08/27 11:01:51;;;;;;;12.20;9.57;;;21.60;99.90;;;;;;5052273;28;20223;-75
2022/08/27 11:04:26;;;;;;;12.98;9.60;;;21.70;99.90;;;;;;5052565;28;20642;-75
2022/08/27 11:06:59;;;;;;;11.35;9.82;;;21.70;99.90;;;;;;5050423;28;20672;-74
2022/08/27 11:09:36;;;;;;;11.07;8.95;;;21.70;99.90;;;;;;5052508;28;20211;-76
2022/08/27 11:12:09;;;;;;;9.05;8.07;;;21.70;99.90;;;;;;5050899;28;20227;-75
2022/08/27 11:14:49;;;;;;;7.78;6.70;;;21.70;99.90;;;;;;5051730;28;20203;-74
2022/08/27 11:17:29;;;;;;;7.15;6.43;;;21.80;99.90;;;;;;5051629;28;20231;-75
2022/08/27 11:20:07;;;;;;;7.55;6.75;;;21.70;99.90;;;;;;5051267;28;20218;-75
2022/08/27 11:22:41;;;;;;;8.43;6.53;;;21.80;99.90;;;;;;5064671;28;20226;-75
2022/08/27 11:25:21;;;;;;;7.90;6.32;;;21.70;99.90;;;;;;5056735;28;20592;-76
2022/08/27 11:27:52;;;;;;;6.13;5.53;;;21.70;99.90;;;;;;5051203;28;20184;-76
2022/08/27 11:30:27;;;;;;;6.72;5.93;;;21.80;99.90;;;;;;5052120;28;20218;-77
2022/08/27 11:33:04;;;;;;;8.85;6.60;;;21.80;99.90;;;;;;5051631;28;20206;-75
2022/08/27 11:35:57;;;;;;;7.35;6.45;;;21.90;99.90;;;;;;5050733;28;20203;-76
2022/08/27 11:38:40;;;;;;;6.60;5.90;;;22.00;99.90;;;;;;5051449;28;20211;-74
2022/08/27 11:41:27;;;;;;;7.53;5.78;;;22.10;99.90;;;;;;5051013;28;20227;-77
2022/08/27 11:44:04;;;;;;;6.38;5.78;;;22.00;99.90;;;;;;5051047;28;20200;-75
2022/08/27 11:46:44;;;;;;;6.15;5.55;;;22.00;99.90;;;;;;5051971;28;20215;-76
2022/08/27 11:49:29;;;;;;;6.10;5.50;;;22.00;99.90;;;;;;5052155;28;20179;-74
2022/08/27 11:52:03;;;;;;;6.00;5.38;;;22.10;99.90;;;;;;5054935;28;20700;-76
2022/08/27 11:54:47;;;;;;;6.75;6.00;;;22.10;99.90;;;;;;5051414;28;20567;-76
2022/08/27 11:57:28;;;;;;;7.00;5.53;;;22.20;99.90;;;;;;5063242;28;20199;-76
2022/08/27 11:59:57;;;;;;;7.18;5.95;;;22.20;99.90;;;;;;5072103;28;20190;-77
2022/08/27 12:02:29;;;;;;;7.63;6.82;;;22.20;99.90;;;;;;5070768;28;20219;-76
2022/08/27 12:05:09;;;;;;;6.90;6.15;;;22.20;99.90;;;;;;5060330;28;20192;-74
2022/08/27 12:07:44;;;;;;;9.65;6.72;;;22.20;99.90;;;;;;5053838;28;20195;-75
2022/08/27 12:10:30;;;;;;;8.15;7.25;;;22.20;99.90;;;;;;5035933;28;20207;-74
2022/08/27 12:13:10;;;;;;;7.38;6.15;;;22.30;99.90;;;;;;5050775;28;20207;-74
2022/08/27 12:16:02;;;;;;;7.22;6.53;;;22.30;99.90;;;;;;5051903;28;20199;-75
2022/08/27 12:18:42;;;;;;;6.07;5.57;;;22.20;99.90;;;;;;5051536;28;20584;-75
2022/08/27 12:21:22;;;;;;;7.97;6.50;;;22.20;99.90;;;;;;5040071;28;20223;-75
2022/08/27 12:24:20;;;;;;;7.88;6.85;;;22.30;99.90;;;;;;5055508;28;20210;-75
2022/08/27 12:26:57;;;;;;;7.93;6.30;;;22.20;99.90;;;;;;5052706;28;20203;-74
2022/08/27 12:29:33;;;;;;;7.43;6.43;;;22.10;99.90;;;;;;5055371;28;20214;-74
2022/08/27 12:32:15;;;;;;;8.23;7.35;;;22.10;99.90;;;;;;5056054;28;20215;-75
2022/08/27 12:34:48;;;;;;;7.72;6.95;;;22.10;99.90;;;;;;5053452;28;20203;-75
2022/08/27 12:37:24;;;;;;;9.57;7.40;;;22.10;99.90;;;;;;5057811;28;20196;-74
2022/08/27 12:39:57;;;;;;;7.55;6.85;;;22.10;99.90;;;;;;5069830;28;20202;-75
2022/08/27 12:42:26;;;;;;;8.85;6.90;;;22.20;99.90;;;;;;5056565;28;20705;-74
2022/08/27 12:44:58;;;;;;;8.40;7.28;;;22.20;99.90;;;;;;5055850;28;20195;-73
2022/08/27 12:47:28;;;;;;;9.13;7.38;;;22.30;99.90;;;;;;5037172;28;20199;-74
2022/08/27 12:49:59;;;;;;;9.18;6.82;;;22.30;99.90;;;;;;5053759;28;20191;-75
2022/08/27 12:52:47;;;;;;;8.65;6.68;;;22.40;99.90;;;;;;5056077;28;20223;-75
2022/08/27 12:55:25;;;;;;;6.68;5.97;;;22.50;99.90;;;;;;5073510;28;20202;-74
2022/08/27 12:58:04;;;;;;;7.85;7.05;;;22.60;99.90;;;;;;5054868;28;20196;-74
2022/08/27 13:00:46;;;;;;;8.05;6.20;;;22.70;99.90;;;;;;5054672;28;20218;-74
2022/08/27 13:03:24;;;;;;;8.35;6.35;;;22.90;99.90;;;;;;5054218;28;20195;-75